createdAt,value
2023-05-19T00:01:17.027Z,67.55
2023-05-19T00:03:52.553Z,67.22
2023-05-19T00:06:24.989Z,66.42
2023-05-19T00:08:58.178Z,66.98
2023-05-19T00:11:26.945Z,67.19
2023-05-19T00:13:58.167Z,67.56
2023-05-19T00:16:26.398Z,68.70
2023-05-19T00:18:54.285Z,67.23
2023-05-19T00:21:21.299Z,68.36
2023-05-19T00:23:47.988Z,67.98
2023-05-19T00:26:14.759Z,67.34
2023-05-19T00:28:51.111Z,67.52
2023-05-19T00:31:17.899Z,67.90
2023-05-19T00:33:44.757Z,67.72
2023-05-19T00:36:11.780Z,67.24
2023-05-19T00:38:38.612Z,67.50
2023-05-19T00:41:06.416Z,67.50
2023-05-19T00:43:36.450Z,67.09
2023-05-19T00:46:03.639Z,66.21
2023-05-19T00:48:30.409Z,67.31
2023-05-19T00:51:04.121Z,67.64
2023-05-19T00:53:32.161Z,67.07
2023-05-19T00:55:59.812Z,68.62
2023-05-19T00:58:30.777Z,68.18
2023-05-19T01:01:05.271Z,68.67
2023-05-19T01:03:35.635Z,67.61
2023-05-19T01:06:07.456Z,68.13
2023-05-19T01:08:36.256Z,67.76
2023-05-19T01:11:07.318Z,67.85
2023-05-19T01:13:35.936Z,67.37
2023-05-19T01:16:17.723Z,67.63
2023-05-19T01:18:56.709Z,67.51
2023-05-19T01:22:01.150Z,67.19
2023-05-19T01:25:02.916Z,66.58
2023-05-19T01:27:42.303Z,68.10
2023-05-19T01:30:26.771Z,67.70
2023-05-19T01:32:58.422Z,68.63
2023-05-19T01:35:26.245Z,68.31
2023-05-19T01:37:57.445Z,67.61
2023-05-19T01:40:25.700Z,67.92
2023-05-19T01:42:58.709Z,67.95
2023-05-19T01:45:27.849Z,67.76
2023-05-19T01:47:57.694Z,67.89
2023-05-19T01:50:25.121Z,68.23
2023-05-19T01:52:52.335Z,68.17
2023-05-19T01:55:19.367Z,67.74
2023-05-19T01:57:57.897Z,66.72
2023-05-19T02:01:00.189Z,68.20
2023-05-19T02:03:42.232Z,68.45
2023-05-19T02:06:27.647Z,68.07
2023-05-19T02:09:10.707Z,67.80
2023-05-19T02:11:42.036Z,66.96
2023-05-19T02:14:16.088Z,66.96
2023-05-19T02:16:46.303Z,68.26
2023-05-19T02:19:32.112Z,68.33
2023-05-19T02:21:58.918Z,66.72
2023-05-19T02:24:26.083Z,69.09
2023-05-19T02:26:54.056Z,68.22
2023-05-19T02:29:21.397Z,68.46
2023-05-19T02:31:50.583Z,67.78
2023-05-19T02:34:18.979Z,68.93
2023-05-19T02:36:45.678Z,67.71
2023-05-19T02:39:13.001Z,67.78
2023-05-19T02:41:39.722Z,67.18
2023-05-19T02:44:06.462Z,67.61
2023-05-19T02:46:35.857Z,68.05
2023-05-19T02:49:02.554Z,66.94
2023-05-19T02:51:29.297Z,66.07
2023-05-19T02:53:56.125Z,67.94
2023-05-19T02:56:22.852Z,66.85
2023-05-19T02:58:49.520Z,66.63
2023-05-19T03:01:16.599Z,67.85
2023-05-19T03:03:43.548Z,67.82
2023-05-19T03:06:10.398Z,67.35
2023-05-19T03:08:42.319Z,68.10
2023-05-19T03:11:09.319Z,69.11
2023-05-19T03:13:36.170Z,69.07
2023-05-19T03:16:03.249Z,69.31
2023-05-19T03:18:30.059Z,68.75
2023-05-19T03:20:56.831Z,69.14
2023-05-19T03:23:23.543Z,69.56
2023-05-19T03:25:50.835Z,68.37
2023-05-19T03:28:18.062Z,68.50
2023-05-19T03:30:45.059Z,68.22
2023-05-19T03:33:17.107Z,69.36
2023-05-19T03:35:46.931Z,69.14
2023-05-19T03:38:14.628Z,68.56
2023-05-19T03:40:51.124Z,67.94
2023-05-19T03:43:18.060Z,68.45
2023-05-19T03:45:49.611Z,68.88
2023-05-19T03:48:36.413Z,68.06
2023-05-19T03:51:18.170Z,68.11
2023-05-19T03:53:47.008Z,68.47
2023-05-19T03:56:14.026Z,67.88
2023-05-19T03:58:44.863Z,67.98
2023-05-19T04:01:11.827Z,68.50
2023-05-19T04:03:38.654Z,67.36
2023-05-19T04:06:05.828Z,67.85
2023-05-19T04:08:32.578Z,67.83
2023-05-19T04:10:59.265Z,67.52
2023-05-19T04:13:26.078Z,66.87
2023-05-19T04:15:53.141Z,67.83
2023-05-19T04:18:19.948Z,68.27
2023-05-19T04:20:46.675Z,67.67
2023-05-19T04:23:13.356Z,68.76
2023-05-19T04:25:40.946Z,68.78
2023-05-19T04:28:07.818Z,68.65
2023-05-19T04:30:34.752Z,68.01
2023-05-19T04:33:03.820Z,68.08
2023-05-19T04:35:31.382Z,68.66
2023-05-19T04:38:00.046Z,67.34
2023-05-19T04:40:34.257Z,68.70
2023-05-19T04:43:02.368Z,68.03
2023-05-19T04:45:30.205Z,68.46
2023-05-19T04:48:00.214Z,67.50
2023-05-19T04:50:28.652Z,68.40
2023-05-19T04:52:59.158Z,68.17
2023-05-19T04:55:27.067Z,67.23
2023-05-19T04:57:54.522Z,68.40
2023-05-19T05:00:21.989Z,67.44
2023-05-19T05:02:57.791Z,66.87
2023-05-19T05:05:26.653Z,68.26
2023-05-19T05:07:54.174Z,67.85
2023-05-19T05:10:22.901Z,66.75
2023-05-19T05:12:50.795Z,66.75
2023-05-19T05:15:18.116Z,67.44
2023-05-19T05:17:48.076Z,67.40
2023-05-19T05:20:15.468Z,66.61
2023-05-19T05:22:42.579Z,66.63
2023-05-19T05:25:10.777Z,66.04
2023-05-19T05:27:38.326Z,65.52
2023-05-19T05:30:07.391Z,65.86
2023-05-19T05:32:34.422Z,65.42
2023-05-19T05:35:03.283Z,65.46
2023-05-19T05:37:31.261Z,64.78
2023-05-19T05:39:57.967Z,64.33
2023-05-19T05:42:25.336Z,63.86
2023-05-19T05:44:53.067Z,64.24
2023-05-19T05:47:20.174Z,64.00
2023-05-19T05:49:48.735Z,63.75
2023-05-19T05:52:22.029Z,62.75
2023-05-19T05:54:49.291Z,62.92
2023-05-19T05:57:18.896Z,63.68
2023-05-19T05:59:47.145Z,62.40
2023-05-19T06:02:14.567Z,62.40
2023-05-19T06:04:41.877Z,62.21
2023-05-19T06:07:08.926Z,62.70
2023-05-19T06:09:38.107Z,60.17
2023-05-19T06:12:06.851Z,61.07
2023-05-19T06:14:38.984Z,60.74
2023-05-19T06:17:14.909Z,60.31
2023-05-19T06:19:41.885Z,59.18
2023-05-19T06:22:09.167Z,59.30
2023-05-19T06:24:37.866Z,60.13
2023-05-19T06:27:06.193Z,57.90
2023-05-19T06:29:33.033Z,58.09
2023-05-19T06:32:03.294Z,57.79
2023-05-19T06:34:30.275Z,58.49
2023-05-19T06:36:56.992Z,56.98
2023-05-19T06:39:24.898Z,55.77
2023-05-19T06:41:51.642Z,56.24
2023-05-19T06:44:44.069Z,55.54
2023-05-19T06:47:12.148Z,54.98
2023-05-19T06:49:38.988Z,54.01
2023-05-19T06:52:06.639Z,53.35
2023-05-19T06:54:33.465Z,53.16
2023-05-19T06:57:00.181Z,52.68
2023-05-19T06:59:27.030Z,51.57
2023-05-19T07:01:53.859Z,51.81
2023-05-19T07:04:20.756Z,51.84
2023-05-19T07:06:50.327Z,51.79
2023-05-19T07:09:19.076Z,50.20
2023-05-19T07:11:46.990Z,49.68
2023-05-19T07:14:14.902Z,49.39
2023-05-19T07:16:41.660Z,49.07
2023-05-19T07:19:09.401Z,49.51
2023-05-19T07:21:36.261Z,49.33
2023-05-19T07:24:02.997Z,48.03
2023-05-19T07:26:32.212Z,48.75
2023-05-19T07:28:58.990Z,47.60
2023-05-19T07:31:26.015Z,47.31
2023-05-19T07:33:54.600Z,46.30
2023-05-19T07:36:21.756Z,45.99
2023-05-19T07:38:48.422Z,44.82
2023-05-19T07:41:15.179Z,45.21
2023-05-19T07:43:42.546Z,43.90
2023-05-19T07:46:09.414Z,43.99
2023-05-19T07:48:37.439Z,44.04
2023-05-19T07:51:07.686Z,43.36
2023-05-19T07:53:34.414Z,42.55
2023-05-19T07:56:01.055Z,42.78
2023-05-19T07:58:27.790Z,43.20
2023-05-19T08:00:58.809Z,43.39
2023-05-19T08:03:26.678Z,43.04
2023-05-19T08:05:53.540Z,41.39
2023-05-19T08:08:20.304Z,41.93
2023-05-19T08:10:46.979Z,41.76
2023-05-19T08:13:13.662Z,41.82
2023-05-19T08:15:42.876Z,41.88
2023-05-19T08:18:09.788Z,41.11
2023-05-19T08:20:37.556Z,42.28
2023-05-19T08:23:04.342Z,41.72
2023-05-19T08:25:31.317Z,41.92
2023-05-19T08:27:58.166Z,40.66
2023-05-19T08:30:25.051Z,40.46
2023-05-19T08:32:51.897Z,40.33
2023-05-19T08:35:18.661Z,39.62
2023-05-19T08:37:45.361Z,40.30
2023-05-19T08:40:17.560Z,39.98
2023-05-19T08:42:47.838Z,39.04
2023-05-19T08:45:14.742Z,39.60
2023-05-19T08:47:42.455Z,38.73
2023-05-19T08:50:11.442Z,38.33
2023-05-19T08:52:57.852Z,39.00
2023-05-19T08:55:34.015Z,38.48
2023-05-19T08:58:03.725Z,38.35
2023-05-19T09:00:30.964Z,38.80
2023-05-19T09:03:10.804Z,40.43
2023-05-19T09:05:44.064Z,38.23
2023-05-19T09:08:11.257Z,38.52
2023-05-19T09:10:37.999Z,37.60
2023-05-19T09:13:05.624Z,36.90
2023-05-19T09:15:34.095Z,35.71
2023-05-19T09:18:06.725Z,36.42
2023-05-19T09:20:47.096Z,35.34
2023-05-19T09:23:17.055Z,36.29
2023-05-19T09:25:51.044Z,36.70
2023-05-19T09:28:31.176Z,38.01
2023-05-19T09:31:06.199Z,37.30
2023-05-19T09:33:35.056Z,36.87
2023-05-19T09:36:01.965Z,37.35
2023-05-19T09:38:31.789Z,37.88
2023-05-19T09:41:00.014Z,37.48
2023-05-19T09:43:30.976Z,37.57
2023-05-19T09:46:03.623Z,37.75
2023-05-19T09:48:30.545Z,37.86
2023-05-19T09:50:58.987Z,37.33
2023-05-19T09:53:25.981Z,36.38
2023-05-19T09:55:59.451Z,35.94
2023-05-19T09:58:26.602Z,36.20
2023-05-19T10:00:54.880Z,36.90
2023-05-19T10:03:26.299Z,36.83
2023-05-19T10:05:53.854Z,36.71
2023-05-19T10:08:22.726Z,37.68
2023-05-19T10:10:49.651Z,38.19
2023-05-19T10:13:16.765Z,37.52
2023-05-19T10:15:57.343Z,38.17
2023-05-19T10:18:26.599Z,36.15
2023-05-19T10:20:54.339Z,36.92
2023-05-19T10:23:22.282Z,38.02
2023-05-19T10:25:51.265Z,37.50
2023-05-19T10:28:21.132Z,38.81
2023-05-19T10:30:51.614Z,36.43
2023-05-19T10:33:21.142Z,36.30
2023-05-19T10:36:08.390Z,36.01
2023-05-19T10:38:37.293Z,33.96
2023-05-19T10:41:16.934Z,35.44
2023-05-19T10:44:05.460Z,35.66
2023-05-19T10:46:32.278Z,35.86
2023-05-19T10:48:59.534Z,35.48
2023-05-19T10:51:33.279Z,34.65
2023-05-19T10:54:08.817Z,34.49
2023-05-19T10:56:42.274Z,34.86
2023-05-19T10:59:33.018Z,36.57
2023-05-19T11:02:08.316Z,35.23
2023-05-19T11:04:51.079Z,36.30
2023-05-19T11:07:19.843Z,36.64
2023-05-19T11:09:52.972Z,35.36
2023-05-19T11:12:22.101Z,35.72
2023-05-19T11:14:49.081Z,35.93
2023-05-19T11:17:16.325Z,35.81
2023-05-19T11:19:54.618Z,35.57
2023-05-19T11:22:26.238Z,35.50
2023-05-19T11:24:55.991Z,36.27
2023-05-19T11:27:35.146Z,34.78
2023-05-19T11:30:14.817Z,35.07
2023-05-19T11:32:42.881Z,36.29
2023-05-19T11:35:14.600Z,36.07
2023-05-19T11:37:43.000Z,36.89
2023-05-19T11:40:10.939Z,37.23
2023-05-19T11:42:37.764Z,36.09
2023-05-19T11:45:05.320Z,35.40
2023-05-19T11:47:46.037Z,36.19
2023-05-19T11:50:20.305Z,35.80
2023-05-19T11:52:47.662Z,35.48
2023-05-19T11:55:24.186Z,34.81
2023-05-19T12:00:31.214Z,33.61
2023-05-19T12:02:58.265Z,34.51
2023-05-19T12:05:26.991Z,34.30
2023-05-19T12:07:54.276Z,34.15
2023-05-19T12:10:29.016Z,34.19
2023-05-19T12:12:57.208Z,33.65
2023-05-19T12:15:25.203Z,33.28
2023-05-19T12:17:57.678Z,32.93
2023-05-19T12:20:25.098Z,34.01
2023-05-19T12:22:52.941Z,33.12
2023-05-19T12:25:20.485Z,33.93
2023-05-19T12:27:49.524Z,34.18
2023-05-19T12:30:16.867Z,34.95
2023-05-19T12:32:43.990Z,34.42
2023-05-19T12:35:10.992Z,33.42
2023-05-19T12:37:43.670Z,33.07
2023-05-19T12:40:16.606Z,33.37
2023-05-19T12:42:46.703Z,33.69
2023-05-19T12:45:13.419Z,34.29
2023-05-19T12:47:40.244Z,34.40
2023-05-19T12:50:08.746Z,33.98
2023-05-19T12:52:45.790Z,33.99
2023-05-19T12:55:16.660Z,34.07
2023-05-19T12:57:48.723Z,33.24
2023-05-19T13:00:25.103Z,32.64
2023-05-19T13:02:56.218Z,32.66
2023-05-19T13:05:23.112Z,33.92
2023-05-19T13:08:04.662Z,33.80
2023-05-19T13:10:32.902Z,33.29
2023-05-19T13:13:00.535Z,33.01
2023-05-19T13:15:36.470Z,33.61
2023-05-19T13:18:04.548Z,33.95
2023-05-19T13:20:32.005Z,34.26
2023-05-19T13:22:59.547Z,32.93
2023-05-19T13:25:26.754Z,33.41
2023-05-19T13:27:59.322Z,33.49
2023-05-19T13:30:26.064Z,32.71
2023-05-19T13:32:52.840Z,32.89
2023-05-19T13:35:20.159Z,32.83
2023-05-19T13:37:46.884Z,32.13
2023-05-19T13:40:13.770Z,33.05
2023-05-19T13:42:40.818Z,33.54
2023-05-19T13:45:08.291Z,33.25
2023-05-19T13:47:35.214Z,33.02
2023-05-19T13:50:04.517Z,33.42
2023-05-19T13:52:31.448Z,32.92
2023-05-19T13:54:58.173Z,32.44
2023-05-19T13:57:26.320Z,32.91
2023-05-19T14:00:02.649Z,32.79
2023-05-19T14:02:39.523Z,32.65
2023-05-19T14:05:07.406Z,33.17
2023-05-19T14:07:37.109Z,32.83
2023-05-19T14:10:06.665Z,32.66
2023-05-19T14:12:49.306Z,32.52
2023-05-19T14:15:22.191Z,32.94
2023-05-19T14:17:49.237Z,32.68
2023-05-19T14:20:16.181Z,33.33
2023-05-19T14:22:42.935Z,32.93
2023-05-19T14:25:12.822Z,33.18
2023-05-19T14:27:42.381Z,33.05
2023-05-19T14:30:09.567Z,33.70
2023-05-19T14:32:36.367Z,34.08
2023-05-19T14:35:03.573Z,34.24
2023-05-19T14:37:31.882Z,33.86
2023-05-19T14:39:58.935Z,34.49
2023-05-19T14:42:25.622Z,34.93
2023-05-19T14:44:52.254Z,35.53
2023-05-19T14:47:18.986Z,35.13
2023-05-19T14:49:45.806Z,35.04
2023-05-19T14:52:12.447Z,35.93
2023-05-19T14:54:39.179Z,35.97
2023-05-19T14:57:07.289Z,35.36
2023-05-19T14:59:37.481Z,35.29
2023-05-19T15:02:05.272Z,36.40
2023-05-19T15:04:31.983Z,36.49
2023-05-19T15:09:32.346Z,37.35
2023-05-19T15:12:01.249Z,37.77
2023-05-19T15:14:30.270Z,38.34
2023-05-19T15:16:57.805Z,37.95
2023-05-19T15:19:24.811Z,38.47
2023-05-19T15:21:51.769Z,38.27
2023-05-19T15:24:19.164Z,38.42
2023-05-19T15:26:45.910Z,38.72
2023-05-19T15:29:12.548Z,39.39
2023-05-19T15:31:39.364Z,39.76
2023-05-19T15:34:06.263Z,39.51
2023-05-19T15:36:32.927Z,40.18
2023-05-19T15:38:59.574Z,39.70
2023-05-19T15:41:26.796Z,39.57
2023-05-19T15:43:53.697Z,39.97
2023-05-19T15:46:20.431Z,39.80
2023-05-19T15:48:47.179Z,39.41
2023-05-19T15:51:14.001Z,39.65
2023-05-19T15:53:40.653Z,39.72
2023-05-19T15:56:07.477Z,39.36
2023-05-19T15:58:34.107Z,38.76
2023-05-19T16:01:01.261Z,39.15
2023-05-19T16:03:28.021Z,39.23
2023-05-19T16:05:54.878Z,39.61
2023-05-19T16:08:21.536Z,39.41
2023-05-19T16:10:48.264Z,40.15
2023-05-19T16:13:15.072Z,39.69
2023-05-19T16:15:41.867Z,40.07
2023-05-19T16:18:08.661Z,40.19
2023-05-19T16:20:35.487Z,40.35
2023-05-19T16:23:03.170Z,40.69
2023-05-19T16:25:30.164Z,40.30
2023-05-19T16:27:57.058Z,40.79
2023-05-19T16:30:26.205Z,40.61
2023-05-19T16:32:55.675Z,40.54
2023-05-19T16:35:22.695Z,40.67
2023-05-19T16:37:49.609Z,40.97
2023-05-19T16:40:16.383Z,41.45
2023-05-19T16:42:43.081Z,41.60
2023-05-19T16:45:10.200Z,41.55
2023-05-19T16:47:36.990Z,41.84
2023-05-19T16:50:04.203Z,42.06
2023-05-19T16:52:30.920Z,42.51
2023-05-19T16:54:57.572Z,42.46
2023-05-19T16:57:24.275Z,42.11
2023-05-19T16:59:50.996Z,42.33
2023-05-19T17:02:17.724Z,43.01
2023-05-19T17:04:44.540Z,42.75
2023-05-19T17:07:17.554Z,43.06
2023-05-19T17:09:44.687Z,43.46
2023-05-19T17:12:11.336Z,44.22
2023-05-19T17:14:38.007Z,44.33
2023-05-19T17:17:04.859Z,44.61
2023-05-19T17:19:31.640Z,44.88
2023-05-19T17:21:58.411Z,45.61
2023-05-19T17:24:25.119Z,45.70
2023-05-19T17:26:52.435Z,46.48
2023-05-19T17:29:19.149Z,46.73
2023-05-19T17:31:45.949Z,46.67
2023-05-19T17:34:12.702Z,47.56
2023-05-19T17:36:39.366Z,47.67
2023-05-19T17:39:05.987Z,47.67
2023-05-19T17:41:32.718Z,48.16
2023-05-19T17:43:59.442Z,48.53
2023-05-19T17:46:26.381Z,48.20
2023-05-19T17:48:52.996Z,47.79
2023-05-19T17:51:19.862Z,48.16
2023-05-19T17:53:46.741Z,48.63
2023-05-19T17:56:14.191Z,48.95
2023-05-19T17:58:41.444Z,48.82
2023-05-19T18:01:08.726Z,48.21
2023-05-19T18:03:35.867Z,48.67
2023-05-19T18:06:02.960Z,48.97
2023-05-19T18:08:31.059Z,48.82
2023-05-19T18:10:58.200Z,49.04
2023-05-19T18:13:27.206Z,48.96
2023-05-19T18:15:53.992Z,49.53
2023-05-19T18:18:20.780Z,48.51
2023-05-19T18:20:48.196Z,48.45
2023-05-19T18:23:14.844Z,48.73
2023-05-19T18:25:41.524Z,48.82
2023-05-19T18:28:08.223Z,47.42
2023-05-19T18:30:35.504Z,47.44
2023-05-19T18:33:03.886Z,47.32
2023-05-19T18:35:31.006Z,47.45
2023-05-19T18:37:57.883Z,47.08
2023-05-19T18:40:24.683Z,46.96
2023-05-19T18:42:51.437Z,47.24
2023-05-19T18:45:18.215Z,47.67
2023-05-19T18:47:44.999Z,47.32
2023-05-19T18:50:11.683Z,47.40
2023-05-19T18:52:38.366Z,47.67
2023-05-19T18:55:05.572Z,47.77
2023-05-19T18:57:32.313Z,47.57
2023-05-19T18:59:58.987Z,48.17
2023-05-19T19:02:26.807Z,47.78
2023-05-19T19:04:53.586Z,48.40
2023-05-19T19:07:20.280Z,48.94
2023-05-19T19:09:46.965Z,49.27
2023-05-19T19:12:13.656Z,51.68
2023-05-19T19:14:40.356Z,49.09
2023-05-19T19:17:07.117Z,49.51
2023-05-19T19:19:33.878Z,52.16
2023-05-19T19:22:00.742Z,51.83
2023-05-19T19:24:28.478Z,52.14
2023-05-19T19:26:55.240Z,51.88
2023-05-19T19:29:22.035Z,53.19
2023-05-19T19:31:48.996Z,52.14
2023-05-19T19:34:15.917Z,52.52
2023-05-19T19:36:43.883Z,53.18
2023-05-19T19:39:10.617Z,52.88
2023-05-19T19:41:37.573Z,52.23
2023-05-19T19:44:04.433Z,53.25
2023-05-19T19:46:31.182Z,52.43
2023-05-19T19:49:00.723Z,54.20
2023-05-19T19:51:28.434Z,53.11
2023-05-19T19:53:55.191Z,54.93
2023-05-19T19:56:24.503Z,54.37
2023-05-19T19:58:51.239Z,54.56
2023-05-19T20:01:20.400Z,54.69
2023-05-19T20:03:48.022Z,55.29
2023-05-19T20:06:15.044Z,54.94
2023-05-19T20:08:41.819Z,54.35
2023-05-19T20:11:09.245Z,56.01
2023-05-19T20:13:35.932Z,56.49
2023-05-19T20:16:02.738Z,55.42
2023-05-19T20:18:29.934Z,55.15
2023-05-19T20:20:56.988Z,55.81
2023-05-19T20:23:23.817Z,55.60
2023-05-19T20:26:02.938Z,55.39
2023-05-19T20:28:36.518Z,55.27
2023-05-19T20:31:03.247Z,56.67
2023-05-19T20:33:29.926Z,55.77
2023-05-19T20:35:56.545Z,54.93
2023-05-19T20:38:23.206Z,55.20
2023-05-19T20:40:49.948Z,55.56
2023-05-19T20:43:19.678Z,56.70
2023-05-19T20:45:49.195Z,55.50
2023-05-19T20:48:16.119Z,55.46
2023-05-19T20:50:42.904Z,57.39
2023-05-19T20:53:09.646Z,55.36
2023-05-19T20:55:38.380Z,54.89
2023-05-19T20:58:05.393Z,54.87
2023-05-19T21:00:32.592Z,54.59
2023-05-19T21:02:59.710Z,55.54
2023-05-19T21:05:26.406Z,55.17
2023-05-19T21:07:54.851Z,54.63
2023-05-19T21:10:21.583Z,54.74
2023-05-19T21:12:48.210Z,54.39
2023-05-19T21:15:14.906Z,53.25
2023-05-19T21:17:41.573Z,53.82
2023-05-19T21:20:08.943Z,53.73
2023-05-19T21:22:35.959Z,56.54
2023-05-19T21:25:02.722Z,53.75
2023-05-19T21:27:29.894Z,53.03
2023-05-19T21:29:56.552Z,52.27
2023-05-19T21:32:23.224Z,52.23
2023-05-19T21:34:49.930Z,52.38
2023-05-19T21:37:17.634Z,51.29
2023-05-19T21:39:44.779Z,51.98
2023-05-19T21:42:11.505Z,51.48
2023-05-19T21:44:38.213Z,50.55
2023-05-19T21:47:04.944Z,51.66
2023-05-19T21:49:31.676Z,49.91
2023-05-19T21:51:58.590Z,49.47
2023-05-19T21:54:25.382Z,48.22
2023-05-19T21:56:54.485Z,47.94
2023-05-19T21:59:23.242Z,48.58
2023-05-19T22:01:50.438Z,46.92
2023-05-19T22:04:18.487Z,47.53
2023-05-19T22:06:45.512Z,46.28
2023-05-19T22:09:12.849Z,47.45
2023-05-19T22:11:39.881Z,46.46
2023-05-19T22:14:06.940Z,45.36
2023-05-19T22:16:34.109Z,45.67
2023-05-19T22:19:00.987Z,45.29
2023-05-19T22:21:27.916Z,45.43
2023-05-19T22:23:54.648Z,45.62
2023-05-19T22:26:22.038Z,45.33
2023-05-19T22:28:50.011Z,45.30
2023-05-19T22:31:16.768Z,45.64
2023-05-19T22:33:43.544Z,45.73
2023-05-19T22:36:11.069Z,46.41
2023-05-19T22:38:37.979Z,46.52
2023-05-19T22:41:04.804Z,46.08
2023-05-19T22:43:31.507Z,46.96
2023-05-19T22:45:58.242Z,45.81
2023-05-19T22:48:24.930Z,47.25
2023-05-19T22:50:51.608Z,46.43
2023-05-19T22:53:18.258Z,45.74
2023-05-19T22:55:47.502Z,46.06
2023-05-19T22:58:14.250Z,46.35
2023-05-19T23:00:40.970Z,45.25
2023-05-19T23:03:07.749Z,47.40
2023-05-19T23:05:34.749Z,47.40
2023-05-19T23:08:01.792Z,45.94
2023-05-19T23:10:28.465Z,46.67
2023-05-19T23:12:55.229Z,47.40
2023-05-19T23:15:24.086Z,46.88
2023-05-19T23:17:50.887Z,46.82
2023-05-19T23:20:17.618Z,46.45
2023-05-19T23:22:44.354Z,48.21
2023-05-19T23:25:11.203Z,47.29
2023-05-19T23:27:38.006Z,48.19
2023-05-19T23:30:05.258Z,47.24
2023-05-19T23:32:32.186Z,47.66
2023-05-19T23:35:12.573Z,46.99
2023-05-19T23:37:39.363Z,47.76
2023-05-19T23:40:08.106Z,48.23
2023-05-19T23:42:35.381Z,47.75
2023-05-19T23:45:02.613Z,47.41
2023-05-19T23:47:29.306Z,47.46
2023-05-19T23:49:56.127Z,46.89
2023-05-19T23:52:22.815Z,48.00
2023-05-19T23:54:49.591Z,48.10
2023-05-19T23:57:16.447Z,47.13
2023-05-19T23:59:43.164Z,48.14
